createdAt,value
2022-10-23T00:00:45.111Z,13.14
2022-10-23T00:05:59.896Z,13.13
2022-10-23T00:10:54.632Z,13.12
2022-10-23T00:15:49.368Z,13.11
2022-10-23T00:20:44.170Z,13.10
2022-10-23T00:25:39.177Z,13.10
2022-10-23T00:30:34.511Z,13.10
2022-10-23T00:35:29.913Z,13.07
2022-10-23T00:40:24.519Z,13.07
2022-10-23T00:45:26.340Z,13.06
2022-10-23T00:50:25.593Z,13.06
2022-10-23T00:55:24.498Z,13.05
2022-10-23T01:00:24.640Z,13.07
2022-10-23T01:05:23.674Z,13.08
2022-10-23T01:10:32.625Z,13.10
2022-10-23T01:15:37.638Z,13.09
2022-10-23T01:20:44.941Z,13.09
2022-10-23T01:26:01.067Z,13.11
2022-10-23T01:31:01.966Z,13.13
2022-10-23T01:36:08.175Z,13.15
2022-10-23T01:41:11.155Z,13.16
2022-10-23T01:46:12.109Z,13.18
2022-10-23T01:51:13.605Z,13.20
2022-10-23T01:56:15.667Z,13.22
2022-10-23T02:01:13.380Z,13.24
2022-10-23T02:06:14.648Z,13.25
2022-10-23T02:11:13.884Z,13.26
2022-10-23T02:16:20.197Z,13.27
2022-10-23T02:21:27.509Z,13.26
2022-10-23T02:26:29.838Z,13.27
2022-10-23T02:31:25.743Z,13.29
2022-10-23T02:36:22.140Z,13.29
2022-10-23T02:41:35.690Z,13.31
2022-10-23T02:46:41.929Z,13.32
2022-10-23T02:51:53.706Z,13.32
2022-10-23T02:57:02.919Z,13.33
2022-10-23T03:02:08.188Z,13.33
2022-10-23T03:07:05.258Z,13.32
2022-10-23T03:12:00.255Z,13.31
2022-10-23T03:16:54.935Z,13.31
2022-10-23T03:21:50.595Z,13.30
2022-10-23T03:26:46.034Z,13.28
2022-10-23T03:31:41.622Z,13.25
2022-10-23T03:36:36.919Z,13.24
2022-10-23T03:41:32.893Z,13.22
2022-10-23T03:46:31.016Z,13.22
2022-10-23T03:51:27.775Z,13.22
2022-10-23T03:56:22.764Z,13.23
2022-10-23T04:01:18.251Z,13.24
2022-10-23T04:06:13.462Z,13.25
2022-10-23T04:11:09.524Z,13.25
2022-10-23T04:16:12.546Z,13.25
2022-10-23T04:21:07.706Z,13.29
2022-10-23T04:26:02.311Z,13.29
2022-10-23T04:30:58.270Z,13.30
2022-10-23T04:35:53.706Z,13.28
2022-10-23T04:40:48.804Z,13.28
2022-10-23T04:45:50.273Z,13.27
2022-10-23T04:50:54.103Z,13.21
2022-10-23T04:56:03.707Z,13.14
2022-10-23T05:01:06.736Z,13.09
2022-10-23T05:06:03.136Z,13.05
2022-10-23T05:11:16.557Z,13.01
2022-10-23T05:16:32.859Z,12.98
2022-10-23T05:21:32.548Z,12.95
2022-10-23T05:26:28.570Z,12.93
2022-10-23T05:31:25.282Z,12.93
2022-10-23T05:36:25.554Z,12.92
2022-10-23T05:41:24.480Z,12.91
2022-10-23T05:46:21.190Z,12.91
2022-10-23T05:51:40.283Z,12.91
2022-10-23T05:57:10.512Z,12.91
2022-10-23T06:02:15.822Z,12.91
2022-10-23T06:07:25.433Z,12.87
2022-10-23T06:12:21.679Z,12.86
2022-10-23T06:17:18.246Z,12.85
2022-10-23T06:22:15.130Z,12.82
2022-10-23T06:27:19.944Z,12.80
2022-10-23T06:32:14.882Z,12.77
2022-10-23T06:37:14.078Z,12.75
2022-10-23T06:42:23.447Z,12.74
2022-10-23T06:47:24.686Z,12.75
2022-10-23T06:52:47.326Z,12.75
2022-10-23T06:57:45.209Z,12.80
2022-10-23T07:02:41.989Z,12.84
2022-10-23T07:07:37.282Z,12.87
2022-10-23T07:12:32.485Z,12.90
2022-10-23T07:18:13.688Z,12.97
2022-10-23T07:23:26.628Z,13.03
2022-10-23T07:28:22.655Z,13.09
2022-10-23T07:33:18.060Z,13.13
2022-10-23T07:38:23.129Z,13.18
2022-10-23T07:43:21.749Z,13.25
2022-10-23T07:48:20.377Z,13.32
2022-10-23T07:53:29.162Z,13.38
2022-10-23T07:58:29.781Z,13.44
2022-10-23T08:03:40.150Z,13.55
2022-10-23T08:08:35.363Z,13.66
2022-10-23T08:13:31.351Z,13.82
2022-10-23T08:18:31.698Z,13.97
2022-10-23T08:23:27.143Z,14.07
2022-10-23T08:28:22.378Z,14.14
2022-10-23T08:33:23.280Z,14.22
2022-10-23T08:38:18.778Z,14.35
2022-10-23T08:43:21.384Z,14.52
2022-10-23T08:48:37.915Z,14.73
2022-10-23T08:54:02.960Z,14.87
2022-10-23T08:59:08.237Z,14.92
2022-10-23T09:04:04.996Z,14.92
2022-10-23T09:09:20.417Z,14.92
2022-10-23T09:14:50.057Z,14.90
2022-10-23T09:19:47.549Z,14.87
2022-10-23T09:24:45.607Z,14.90
2022-10-23T09:29:50.431Z,15.01
2022-10-23T09:34:55.060Z,15.10
2022-10-23T09:40:02.810Z,15.23
2022-10-23T09:44:58.288Z,15.39
2022-10-23T09:49:56.704Z,15.50
2022-10-23T09:54:56.391Z,15.60
2022-10-23T09:59:55.068Z,15.63
2022-10-23T10:04:50.682Z,15.59
2022-10-23T10:09:45.831Z,15.57
2022-10-23T10:14:58.059Z,15.56
2022-10-23T10:20:23.576Z,15.50
2022-10-23T10:25:25.600Z,15.44
2022-10-23T10:30:24.413Z,15.42
2022-10-23T10:35:40.784Z,15.42
2022-10-23T10:40:41.736Z,15.41
2022-10-23T10:45:45.778Z,15.43
2022-10-23T10:50:48.242Z,15.45
2022-10-23T10:55:53.793Z,15.48
2022-10-23T11:00:55.972Z,15.52
2022-10-23T11:05:56.268Z,15.54
2022-10-23T11:10:57.106Z,15.56
2022-10-23T11:15:56.336Z,15.57
2022-10-23T11:21:07.847Z,15.59
2022-10-23T11:26:25.437Z,15.66
2022-10-23T11:31:34.489Z,15.74
2022-10-23T11:36:46.845Z,15.78
2022-10-23T11:41:53.683Z,15.83
2022-10-23T11:46:59.496Z,15.88
2022-10-23T11:52:04.474Z,15.92
2022-10-23T11:57:12.937Z,16.03
2022-10-23T12:02:31.393Z,16.22
2022-10-23T12:07:30.993Z,16.57
2022-10-23T12:12:40.327Z,16.90
2022-10-23T12:17:39.588Z,17.02
2022-10-23T12:22:58.532Z,16.94
2022-10-23T12:28:03.737Z,16.79
2022-10-23T12:33:29.507Z,16.69
2022-10-23T12:38:30.162Z,16.57
2022-10-23T12:43:32.272Z,16.45
2022-10-23T12:48:29.391Z,16.35
2022-10-23T12:53:24.586Z,16.28
2022-10-23T12:58:25.425Z,16.20
2022-10-23T13:03:25.010Z,16.09
2022-10-23T13:08:22.351Z,16.01
2022-10-23T13:13:36.444Z,15.93
2022-10-23T13:18:42.536Z,15.86
2022-10-23T13:23:41.414Z,15.82
2022-10-23T13:28:44.444Z,15.76
2022-10-23T13:33:42.895Z,15.71
2022-10-23T13:38:41.060Z,15.67
2022-10-23T13:43:37.724Z,15.62
2022-10-23T13:48:32.768Z,15.57
2022-10-23T13:53:27.617Z,15.53
2022-10-23T13:58:23.014Z,15.51
2022-10-23T14:03:19.800Z,15.44
2022-10-23T14:08:14.153Z,15.40
2022-10-23T14:13:08.873Z,15.36
2022-10-23T14:18:08.018Z,15.33
2022-10-23T14:23:03.556Z,15.31
2022-10-23T14:28:00.243Z,15.29
2022-10-23T14:32:55.645Z,15.26
2022-10-23T14:37:50.994Z,15.22
2022-10-23T14:42:46.279Z,15.19
2022-10-23T14:47:42.523Z,15.16
2022-10-23T14:52:37.914Z,15.13
2022-10-23T14:57:32.633Z,15.10
2022-10-23T15:02:28.019Z,15.07
2022-10-23T15:07:23.330Z,15.05
2022-10-23T15:12:19.132Z,15.02
2022-10-23T15:17:15.724Z,15.02
2022-10-23T15:22:11.433Z,15.02
2022-10-23T15:27:07.085Z,15.02
2022-10-23T15:32:05.417Z,14.99
2022-10-23T15:37:00.667Z,14.95
2022-10-23T15:41:57.718Z,14.92
2022-10-23T15:46:56.435Z,14.87
2022-10-23T15:51:52.059Z,14.82
2022-10-23T15:56:49.048Z,14.78
2022-10-23T16:01:44.824Z,14.74
2022-10-23T16:06:39.767Z,14.71
2022-10-23T16:11:39.234Z,14.68
2022-10-23T16:16:35.668Z,14.67
2022-10-23T16:21:35.880Z,14.65
2022-10-23T16:26:31.853Z,14.61
2022-10-23T16:31:28.079Z,14.59
2022-10-23T16:36:23.064Z,14.55
2022-10-23T16:41:50.254Z,14.53
2022-10-23T16:46:45.731Z,14.52
2022-10-23T16:51:41.111Z,14.48
2022-10-23T16:56:36.763Z,14.44
2022-10-23T17:01:33.805Z,14.39
2022-10-23T17:06:31.891Z,14.34
2022-10-23T17:11:29.094Z,14.29
2022-10-23T17:16:27.880Z,14.23
2022-10-23T17:21:24.696Z,14.19
2022-10-23T17:26:21.939Z,14.13
2022-10-23T17:31:21.329Z,14.09
2022-10-23T17:36:18.657Z,14.05
2022-10-23T17:41:17.335Z,14.02
2022-10-23T17:46:17.751Z,14.00
2022-10-23T17:51:15.949Z,13.98
2022-10-23T17:56:18.228Z,13.96
2022-10-23T18:01:17.043Z,13.93
2022-10-23T18:06:17.503Z,13.89
2022-10-23T18:11:19.182Z,13.85
2022-10-23T18:16:15.988Z,13.79
2022-10-23T18:21:11.967Z,13.71
2022-10-23T18:26:16.209Z,13.63
2022-10-23T18:31:12.961Z,13.53
2022-10-23T18:36:17.100Z,13.43
2022-10-23T18:41:14.485Z,13.35
2022-10-23T18:46:10.197Z,13.27
2022-10-23T18:51:05.259Z,13.18
2022-10-23T18:56:00.563Z,13.09
2022-10-23T19:00:55.213Z,13.01
2022-10-23T19:05:50.932Z,12.93
2022-10-23T19:10:47.441Z,12.85
2022-10-23T19:15:43.084Z,12.76
2022-10-23T19:20:38.964Z,12.65
2022-10-23T19:25:36.956Z,12.53
2022-10-23T19:30:32.464Z,12.42
2022-10-23T19:35:30.223Z,12.32
2022-10-23T19:40:25.361Z,12.22
2022-10-23T19:45:22.197Z,12.11
2022-10-23T19:50:17.572Z,12.02
2022-10-23T19:55:12.867Z,11.94
2022-10-23T20:00:12.890Z,11.87
2022-10-23T20:05:15.032Z,11.80
2022-10-23T20:10:12.081Z,11.75
2022-10-23T20:15:10.096Z,11.68
2022-10-23T20:20:06.912Z,11.63
2022-10-23T20:25:03.695Z,11.57
2022-10-23T20:29:58.868Z,11.49
2022-10-23T20:34:54.449Z,11.41
2022-10-23T20:39:50.273Z,11.32
2022-10-23T20:44:45.961Z,11.24
2022-10-23T20:49:41.730Z,11.17
2022-10-23T20:54:37.634Z,11.09
2022-10-23T20:59:35.263Z,10.99
2022-10-23T21:04:30.934Z,10.91
2022-10-23T21:09:30.256Z,10.85
2022-10-23T21:14:26.613Z,10.79
2022-10-23T21:19:22.169Z,10.75
2022-10-23T21:24:18.284Z,10.70
2022-10-23T21:29:19.376Z,10.66
2022-10-23T21:34:15.414Z,10.63
2022-10-23T21:39:11.399Z,10.60
2022-10-23T21:44:10.432Z,10.58
2022-10-23T21:49:05.507Z,10.56
2022-10-23T21:54:00.890Z,10.55
2022-10-23T21:58:56.889Z,10.54
2022-10-23T22:03:54.179Z,10.53
2022-10-23T22:08:50.449Z,10.53
2022-10-23T22:13:46.223Z,10.54
2022-10-23T22:18:42.399Z,10.54
2022-10-23T22:23:38.451Z,10.53
2022-10-23T22:28:33.106Z,10.51
2022-10-23T22:33:33.122Z,10.50
2022-10-23T22:38:27.901Z,10.48
2022-10-23T22:43:22.732Z,10.45
2022-10-23T22:48:17.793Z,10.42
2022-10-23T22:53:13.397Z,10.39
2022-10-23T22:58:09.072Z,10.36
2022-10-23T23:03:04.710Z,10.34
2022-10-23T23:07:59.721Z,10.31
2022-10-23T23:12:55.062Z,10.29
2022-10-23T23:17:50.365Z,10.26
2022-10-23T23:22:45.895Z,10.25
2022-10-23T23:27:41.770Z,10.25
2022-10-23T23:32:37.293Z,10.25
2022-10-23T23:37:33.506Z,10.26
2022-10-23T23:42:29.631Z,10.27
2022-10-23T23:52:24.920Z,10.25
2022-10-23T23:57:19.855Z,10.24
